createdAt,value
2023-05-14T00:01:29.526Z,99486.50
2023-05-14T00:04:34.711Z,99488.84
2023-05-14T00:07:38.270Z,99483.50
2023-05-14T00:10:41.766Z,99485.56
2023-05-14T00:13:45.613Z,99487.06
2023-05-14T00:16:51.391Z,99488.19
2023-05-14T00:19:56.291Z,99487.03
2023-05-14T00:22:59.652Z,99486.31
2023-05-14T00:26:03.044Z,99480.41
2023-05-14T00:29:06.598Z,99480.50
2023-05-14T00:32:10.136Z,99479.19
2023-05-14T00:35:15.046Z,99481.59
2023-05-14T00:38:19.650Z,99475.50
2023-05-14T00:41:23.685Z,99473.25
2023-05-14T00:44:27.426Z,99479.78
2023-05-14T00:47:31.418Z,99479.78
2023-05-14T00:50:36.620Z,99475.81
2023-05-14T00:53:41.535Z,99477.53
2023-05-14T00:56:46.407Z,99471.38
2023-05-14T00:59:49.977Z,99477.53
2023-05-14T01:02:53.544Z,99476.97
2023-05-14T01:06:08.612Z,99474.38
2023-05-14T01:09:20.288Z,99466.81
2023-05-14T01:12:33.974Z,99466.66
2023-05-14T01:15:41.505Z,99460.91
2023-05-14T01:18:47.613Z,99464.56
2023-05-14T01:21:52.491Z,99464.78
2023-05-14T01:24:55.961Z,99459.91
2023-05-14T01:28:07.013Z,99451.19
2023-05-14T01:31:17.703Z,99463.72
2023-05-14T01:34:24.297Z,99454.09
2023-05-14T01:37:31.305Z,99458.28
2023-05-14T01:40:36.707Z,99460.78
2023-05-14T01:43:41.166Z,99460.06
2023-05-14T01:46:44.551Z,99456.66
2023-05-14T01:49:47.917Z,99456.25
2023-05-14T01:52:53.605Z,99455.44
2023-05-14T01:55:57.581Z,99458.84
2023-05-14T01:59:01.175Z,99454.25
2023-05-14T02:02:04.775Z,99449.28
2023-05-14T02:05:09.330Z,99452.13
2023-05-14T02:08:14.260Z,99448.22
2023-05-14T02:11:17.745Z,99442.28
2023-05-14T02:14:21.331Z,99446.72
2023-05-14T02:17:26.288Z,99443.34
2023-05-14T02:20:29.712Z,99437.78
2023-05-14T02:23:41.674Z,99431.06
2023-05-14T02:26:45.929Z,99438.44
2023-05-14T02:29:50.036Z,99438.00
2023-05-14T02:32:53.475Z,99440.38
2023-05-14T02:35:57.513Z,99440.88
2023-05-14T02:39:02.621Z,99433.81
2023-05-14T02:42:07.132Z,99440.88
2023-05-14T02:45:11.397Z,99433.03
2023-05-14T02:48:14.837Z,99437.75
2023-05-14T02:51:18.776Z,99439.63
2023-05-14T02:54:23.498Z,99434.44
2023-05-14T02:57:26.884Z,99442.09
2023-05-14T03:00:30.766Z,99440.84
2023-05-14T03:03:36.150Z,99439.56
2023-05-14T03:06:40.259Z,99426.03
2023-05-14T03:09:45.312Z,99436.72
2023-05-14T03:12:49.521Z,99433.66
2023-05-14T03:15:55.184Z,99424.81
2023-05-14T03:18:58.924Z,99430.44
2023-05-14T03:22:02.532Z,99429.72
2023-05-14T03:25:08.259Z,99428.94
2023-05-14T03:28:12.183Z,99436.84
2023-05-14T03:31:15.676Z,99420.38
2023-05-14T03:34:19.223Z,99425.91
2023-05-14T03:37:22.557Z,99420.78
2023-05-14T03:40:27.681Z,99423.34
2023-05-14T03:43:31.177Z,99427.50
2023-05-14T03:46:34.716Z,99422.28
2023-05-14T03:49:38.622Z,99421.59
2023-05-14T03:52:43.662Z,99416.28
2023-05-14T03:55:49.867Z,99421.75
2023-05-14T03:58:53.758Z,99419.94
2023-05-14T04:01:57.389Z,99415.03
2023-05-14T04:05:02.511Z,99404.63
2023-05-14T04:08:06.210Z,99398.66
2023-05-14T04:11:11.039Z,99401.00
2023-05-14T04:14:14.452Z,99402.50
2023-05-14T04:17:19.574Z,99403.34
2023-05-14T04:20:23.132Z,99405.69
2023-05-14T04:23:27.052Z,99397.56
2023-05-14T04:26:31.862Z,99401.81
2023-05-14T04:29:35.494Z,99407.72
2023-05-14T04:32:39.476Z,99411.09
2023-05-14T04:35:42.930Z,99405.97
2023-05-14T04:38:46.640Z,99406.38
2023-05-14T04:41:51.573Z,99400.53
2023-05-14T04:44:54.931Z,99395.59
2023-05-14T04:47:58.748Z,99389.72
2023-05-14T04:51:03.251Z,99392.50
2023-05-14T04:54:08.136Z,99380.69
2023-05-14T04:57:12.954Z,99380.09
2023-05-14T05:00:17.771Z,99384.56
2023-05-14T05:03:21.551Z,99376.91
2023-05-14T05:06:25.038Z,99381.47
2023-05-14T05:09:28.364Z,99385.63
2023-05-14T05:12:33.231Z,99384.63
2023-05-14T05:15:36.748Z,99387.31
2023-05-14T05:18:40.442Z,99381.09
2023-05-14T05:21:43.863Z,99386.66
2023-05-14T05:24:49.770Z,99382.13
2023-05-14T05:27:54.915Z,99377.44
2023-05-14T05:30:58.555Z,99379.69
2023-05-14T05:34:02.487Z,99379.50
2023-05-14T05:37:06.358Z,99377.31
2023-05-14T05:40:10.738Z,99368.25
2023-05-14T05:43:16.835Z,99375.56
2023-05-14T05:46:20.891Z,99367.44
2023-05-14T05:49:24.444Z,99369.78
2023-05-14T05:52:28.291Z,99371.28
2023-05-14T05:55:31.871Z,99370.63
2023-05-14T05:58:36.633Z,99367.19
2023-05-14T06:01:40.881Z,99363.13
2023-05-14T06:04:44.477Z,99363.66
2023-05-14T06:07:48.033Z,99370.03
2023-05-14T06:10:51.553Z,99365.53
2023-05-14T06:13:56.630Z,99364.28
2023-05-14T06:17:00.331Z,99358.69
2023-05-14T06:20:08.069Z,99366.59
2023-05-14T06:23:12.481Z,99368.06
2023-05-14T06:26:16.498Z,99362.09
2023-05-14T06:29:21.317Z,99365.34
2023-05-14T06:32:27.943Z,99354.19
2023-05-14T06:35:31.493Z,99357.22
2023-05-14T06:38:35.138Z,99358.69
2023-05-14T06:41:38.585Z,99361.13
2023-05-14T06:44:43.850Z,99358.91
2023-05-14T06:47:47.588Z,99358.72
2023-05-14T06:50:51.396Z,99358.28
2023-05-14T06:53:55.978Z,99359.47
2023-05-14T06:56:59.523Z,99356.81
2023-05-14T07:00:05.057Z,99355.19
2023-05-14T07:03:09.219Z,99345.47
2023-05-14T07:06:13.735Z,99336.38
2023-05-14T07:09:17.797Z,99338.44
2023-05-14T07:12:21.282Z,99337.88
2023-05-14T07:15:26.406Z,99328.16
2023-05-14T07:18:29.879Z,99323.47
2023-05-14T07:21:33.889Z,99325.78
2023-05-14T07:24:37.478Z,99320.66
2023-05-14T07:27:40.804Z,99323.09
2023-05-14T07:30:45.881Z,99322.13
2023-05-14T07:33:49.469Z,99314.94
2023-05-14T07:36:53.147Z,99320.44
2023-05-14T07:39:56.578Z,99318.28
2023-05-14T07:43:00.119Z,99317.53
2023-05-14T07:46:04.985Z,99319.28
2023-05-14T07:49:08.437Z,99317.59
2023-05-14T07:52:12.252Z,99310.06
2023-05-14T07:55:16.051Z,99311.06
2023-05-14T07:58:19.578Z,99307.31
2023-05-14T08:01:24.751Z,99302.38
2023-05-14T08:04:28.438Z,99310.22
2023-05-14T08:07:35.171Z,99305.34
2023-05-14T08:10:38.664Z,99304.06
2023-05-14T08:13:42.282Z,99304.34
2023-05-14T08:16:47.251Z,99292.88
2023-05-14T08:19:50.893Z,99290.19
2023-05-14T08:22:54.534Z,99290.63
2023-05-14T08:25:59.333Z,99288.25
2023-05-14T08:29:04.472Z,99290.28
2023-05-14T08:32:22.211Z,99282.94
2023-05-14T08:35:26.795Z,99284.41
2023-05-14T08:38:30.371Z,99274.69
2023-05-14T08:41:34.472Z,99273.75
2023-05-14T08:44:46.903Z,99270.63
2023-05-14T08:47:53.092Z,99261.16
2023-05-14T08:50:57.462Z,99268.88
2023-05-14T08:54:06.923Z,99274.22
2023-05-14T08:57:11.567Z,99273.09
2023-05-14T09:00:16.349Z,99267.94
2023-05-14T09:03:23.299Z,99260.47
2023-05-14T09:06:27.710Z,99263.91
2023-05-14T09:09:31.522Z,99249.03
2023-05-14T09:12:35.139Z,99246.00
2023-05-14T09:15:41.498Z,99245.09
2023-05-14T09:18:46.703Z,99246.50
2023-05-14T09:21:51.172Z,99239.28
2023-05-14T09:25:05.456Z,99242.22
2023-05-14T09:28:10.997Z,99239.84
2023-05-14T09:31:14.492Z,99234.38
2023-05-14T09:34:26.697Z,99224.28
2023-05-14T09:37:30.398Z,99219.19
2023-05-14T09:40:34.028Z,99226.75
2023-05-14T09:43:37.665Z,99217.88
2023-05-14T09:46:43.851Z,99222.50
2023-05-14T09:49:51.750Z,99221.84
2023-05-14T09:52:56.925Z,99213.41
2023-05-14T09:56:00.562Z,99216.03
2023-05-14T09:59:05.931Z,99216.56
2023-05-14T10:02:18.129Z,99211.75
2023-05-14T10:05:25.062Z,99209.19
2023-05-14T10:08:34.777Z,99202.38
2023-05-14T10:11:39.770Z,99208.66
2023-05-14T10:14:49.832Z,99200.28
2023-05-14T10:18:04.870Z,99197.66
2023-05-14T10:21:11.989Z,99194.00
2023-05-14T10:24:19.366Z,99186.88
2023-05-14T10:27:25.871Z,99183.53
2023-05-14T10:30:29.416Z,99183.41
2023-05-14T10:33:49.548Z,99166.22
2023-05-14T10:36:54.690Z,99172.75
2023-05-14T10:40:00.418Z,99178.47
2023-05-14T10:43:05.819Z,99173.44
2023-05-14T10:46:11.747Z,99164.31
2023-05-14T10:49:16.647Z,99163.41
2023-05-14T10:52:27.019Z,99161.72
2023-05-14T10:55:34.443Z,99154.81
2023-05-14T10:58:39.227Z,99151.03
2023-05-14T11:01:43.590Z,99152.41
2023-05-14T11:04:57.563Z,99155.13
2023-05-14T11:08:07.812Z,99155.31
2023-05-14T11:11:11.840Z,99143.06
2023-05-14T11:14:15.550Z,99153.16
2023-05-14T11:17:19.993Z,99152.06
2023-05-14T11:20:23.869Z,99148.75
2023-05-14T11:23:30.241Z,99138.38
2023-05-14T11:26:34.404Z,99139.19
2023-05-14T11:29:38.293Z,99138.91
2023-05-14T11:32:42.116Z,99141.78
2023-05-14T11:35:46.745Z,99132.81
2023-05-14T11:38:52.525Z,99136.22
2023-05-14T11:41:56.203Z,99137.53
2023-05-14T11:45:00.566Z,99144.13
2023-05-14T11:48:12.911Z,99131.47
2023-05-14T11:51:16.486Z,99126.47
2023-05-14T11:54:21.370Z,99123.06
2023-05-14T11:57:24.908Z,99125.41
2023-05-14T12:00:29.090Z,99119.63
2023-05-14T12:03:32.848Z,99114.19
2023-05-14T12:06:36.684Z,99108.59
2023-05-14T12:09:49.028Z,99108.38
2023-05-14T12:12:52.548Z,99097.41
2023-05-14T12:15:57.643Z,99096.84
2023-05-14T12:19:02.353Z,99087.25
2023-05-14T12:22:06.140Z,99085.06
2023-05-14T12:25:14.842Z,99086.50
2023-05-14T12:28:19.043Z,99069.53
2023-05-14T12:31:29.825Z,99078.50
2023-05-14T12:34:34.300Z,99075.91
2023-05-14T12:37:43.174Z,99071.06
2023-05-14T12:40:49.083Z,99078.31
2023-05-14T12:43:52.591Z,99069.69
2023-05-14T12:46:56.378Z,99070.53
2023-05-14T12:50:00.167Z,99066.31
2023-05-14T12:53:04.716Z,99065.50
2023-05-14T12:56:10.203Z,99064.84
2023-05-14T12:59:13.688Z,99052.16
2023-05-14T13:02:17.948Z,99059.06
2023-05-14T13:05:21.598Z,99048.09
2023-05-14T13:08:26.547Z,99051.69
2023-05-14T13:11:32.272Z,99050.66
2023-05-14T13:14:36.498Z,99046.28
2023-05-14T13:17:41.393Z,99052.47
2023-05-14T13:20:45.393Z,99045.41
2023-05-14T13:23:49.075Z,99046.38
2023-05-14T13:26:54.203Z,99040.63
2023-05-14T13:29:59.482Z,99042.38
2023-05-14T13:33:02.863Z,99048.03
2023-05-14T13:36:06.909Z,99038.31
2023-05-14T13:39:12.681Z,99032.75
2023-05-14T13:42:19.200Z,99029.06
2023-05-14T13:45:22.879Z,99034.06
2023-05-14T13:48:27.308Z,99032.09
2023-05-14T13:51:31.452Z,99016.72
2023-05-14T13:54:34.806Z,99024.47
2023-05-14T13:57:44.962Z,99011.50
2023-05-14T14:00:48.543Z,99012.50
2023-05-14T14:03:51.974Z,99011.66
2023-05-14T14:06:55.788Z,99015.69
2023-05-14T14:10:01.700Z,99006.50
2023-05-14T14:13:06.931Z,99012.81
2023-05-14T14:16:11.783Z,99005.25
2023-05-14T14:19:16.456Z,98998.31
2023-05-14T14:22:22.458Z,99008.81
2023-05-14T14:25:26.864Z,99001.19
2023-05-14T14:28:32.031Z,98992.44
2023-05-14T14:31:37.681Z,98991.41
2023-05-14T14:34:41.348Z,98998.19
2023-05-14T14:37:49.377Z,98986.50
2023-05-14T14:40:52.940Z,98993.09
2023-05-14T14:43:57.773Z,98996.81
2023-05-14T14:47:01.151Z,98988.53
2023-05-14T14:50:05.213Z,98978.47
2023-05-14T14:53:08.716Z,98980.97
2023-05-14T14:56:12.515Z,98982.81
2023-05-14T14:59:17.455Z,98985.66
2023-05-14T15:02:21.573Z,98966.28
2023-05-14T15:05:26.006Z,98963.56
2023-05-14T15:08:29.973Z,98953.44
2023-05-14T15:11:35.017Z,98946.34
2023-05-14T15:14:41.713Z,98943.84
2023-05-14T15:17:45.378Z,98943.88
2023-05-14T15:20:49.088Z,98943.19
2023-05-14T15:23:52.715Z,98942.16
2023-05-14T15:26:56.296Z,98939.44
2023-05-14T15:30:01.170Z,98926.63
2023-05-14T15:33:05.494Z,98923.13
2023-05-14T15:36:09.372Z,98928.13
2023-05-14T15:39:13.132Z,98916.50
2023-05-14T15:42:16.944Z,98920.22
2023-05-14T15:45:22.278Z,98920.53
2023-05-14T15:48:26.917Z,98920.03
2023-05-14T15:51:30.572Z,98908.44
2023-05-14T15:54:34.160Z,98903.31
2023-05-14T15:57:37.911Z,98902.13
2023-05-14T16:00:43.076Z,98902.13
2023-05-14T16:03:46.780Z,98909.72
2023-05-14T16:06:50.458Z,98899.31
2023-05-14T16:09:54.060Z,98901.09
2023-05-14T16:12:57.674Z,98897.88
2023-05-14T16:16:05.156Z,98891.13
2023-05-14T16:19:08.962Z,98892.44
2023-05-14T16:22:12.756Z,98889.63
2023-05-14T16:25:18.711Z,98885.59
2023-05-14T16:28:22.427Z,98881.13
2023-05-14T16:31:27.358Z,98884.63
2023-05-14T16:34:30.917Z,98879.66
2023-05-14T16:37:34.499Z,98879.03
2023-05-14T16:40:38.109Z,98869.47
2023-05-14T16:43:42.051Z,98867.22
2023-05-14T16:46:47.039Z,98858.50
2023-05-14T16:49:53.882Z,98862.13
2023-05-14T16:52:57.755Z,98864.09
2023-05-14T16:56:01.347Z,98850.91
2023-05-14T16:59:05.287Z,98854.38
2023-05-14T17:02:10.988Z,98855.13
2023-05-14T17:05:14.665Z,98850.38
2023-05-14T17:08:18.366Z,98848.53
2023-05-14T17:11:21.953Z,98847.41
2023-05-14T17:14:25.804Z,98838.66
2023-05-14T17:17:32.444Z,98842.13
2023-05-14T17:20:35.989Z,98838.47
2023-05-14T17:23:39.517Z,98842.00
2023-05-14T17:26:43.654Z,98841.50
2023-05-14T17:29:47.262Z,98831.06
2023-05-14T17:32:52.260Z,98831.94
2023-05-14T17:35:55.815Z,98830.88
2023-05-14T17:38:59.434Z,98833.13
2023-05-14T17:42:03.782Z,98837.44
2023-05-14T17:45:08.816Z,98832.66
2023-05-14T17:48:14.049Z,98824.13
2023-05-14T17:51:17.739Z,98825.59
2023-05-14T17:54:23.944Z,98821.38
2023-05-14T17:57:27.622Z,98813.22
2023-05-14T18:00:31.772Z,98819.84
2023-05-14T18:03:36.914Z,98820.16
2023-05-14T18:06:40.827Z,98819.47
2023-05-14T18:09:44.547Z,98812.66
2023-05-14T18:12:48.108Z,98816.34
2023-05-14T18:15:54.355Z,98811.06
2023-05-14T18:19:00.557Z,98807.25
2023-05-14T18:22:04.372Z,98810.94
2023-05-14T18:25:09.726Z,98808.34
2023-05-14T18:28:13.261Z,98805.47
2023-05-14T18:31:16.778Z,98804.47
2023-05-14T18:34:21.608Z,98802.63
2023-05-14T18:37:25.144Z,98800.53
2023-05-14T18:40:28.485Z,98795.41
2023-05-14T18:43:32.417Z,98792.47
2023-05-14T18:46:35.972Z,98785.19
2023-05-14T18:49:42.442Z,98787.06
2023-05-14T18:52:45.993Z,98786.50
2023-05-14T18:55:49.638Z,98791.09
2023-05-14T18:58:54.284Z,98784.59
2023-05-14T19:01:57.964Z,98786.84
2023-05-14T19:05:03.434Z,98778.66
2023-05-14T19:08:08.693Z,98768.66
2023-05-14T19:11:12.113Z,98769.53
2023-05-14T19:14:15.714Z,98772.50
2023-05-14T19:17:20.580Z,98764.00
2023-05-14T19:20:25.620Z,98763.50
2023-05-14T19:23:31.147Z,98759.94
2023-05-14T19:26:34.655Z,98759.22
2023-05-14T19:29:38.083Z,98762.78
2023-05-14T19:32:41.572Z,98758.41
2023-05-14T19:35:46.926Z,98757.88
2023-05-14T19:38:50.514Z,98770.75
2023-05-14T19:41:53.957Z,98769.41
2023-05-14T19:44:57.620Z,98766.88
2023-05-14T19:48:01.335Z,98767.53
2023-05-14T19:51:06.600Z,98834.09
2023-05-14T19:54:10.176Z,98831.06
2023-05-14T19:57:13.884Z,98824.16
2023-05-14T20:00:17.841Z,98830.22
2023-05-14T20:03:26.871Z,98834.19
2023-05-14T20:06:32.242Z,98856.28
2023-05-14T20:09:36.020Z,98860.38
2023-05-14T20:12:39.767Z,98858.38
2023-05-14T20:15:43.964Z,98852.06
2023-05-14T20:18:47.404Z,98855.91
2023-05-14T20:21:52.292Z,98854.09
2023-05-14T20:24:55.899Z,98846.84
2023-05-14T20:28:00.484Z,98844.47
2023-05-14T20:31:07.221Z,98848.69
2023-05-14T20:34:10.728Z,98852.69
2023-05-14T20:37:15.665Z,98860.63
2023-05-14T20:40:19.647Z,98856.06
2023-05-14T20:43:23.337Z,98857.91
2023-05-14T20:46:26.932Z,98850.84
2023-05-14T20:49:30.462Z,98837.66
2023-05-14T20:52:35.367Z,98833.72
2023-05-14T20:55:39.424Z,98831.34
2023-05-14T20:58:42.859Z,98821.53
2023-05-14T21:01:46.641Z,98811.94
2023-05-14T21:04:50.595Z,98802.66
2023-05-14T21:07:55.465Z,98801.09
2023-05-14T21:10:59.029Z,98795.53
2023-05-14T21:14:03.281Z,98793.19
2023-05-14T21:17:07.144Z,98784.13
2023-05-14T21:20:13.534Z,98779.94
2023-05-14T21:23:19.692Z,98779.34
2023-05-14T21:26:23.678Z,98775.13
2023-05-14T21:29:27.227Z,98778.38
2023-05-14T21:32:30.894Z,98765.78
2023-05-14T21:35:34.506Z,98773.22
2023-05-14T21:38:39.510Z,98766.81
2023-05-14T21:41:43.088Z,98758.06
2023-05-14T21:44:46.787Z,98748.09
2023-05-14T21:47:50.508Z,98740.25
2023-05-14T21:50:54.072Z,98732.25
2023-05-14T21:53:58.998Z,98726.19
2023-05-14T21:57:02.799Z,98721.03
2023-05-14T22:00:11.984Z,98722.94
2023-05-14T22:03:18.651Z,98719.69
2023-05-14T22:06:24.933Z,98712.28
2023-05-14T22:09:30.505Z,98700.00
2023-05-14T22:12:34.166Z,98701.81
2023-05-14T22:15:38.060Z,98700.56
2023-05-14T22:18:41.774Z,98690.22
2023-05-14T22:21:45.309Z,98689.72
2023-05-14T22:24:50.336Z,98690.75
2023-05-14T22:27:53.772Z,98685.63
2023-05-14T22:30:59.869Z,98681.53
2023-05-14T22:34:03.353Z,98685.63
2023-05-14T22:37:07.244Z,98685.41
2023-05-14T22:40:13.693Z,98675.84
2023-05-14T22:43:17.276Z,98665.63
2023-05-14T22:46:21.267Z,98646.91
2023-05-14T22:49:24.761Z,98629.97
2023-05-14T22:52:28.141Z,98614.72
2023-05-14T22:55:33.219Z,98600.78
2023-05-14T22:58:36.764Z,98599.81
2023-05-14T23:01:40.166Z,98600.63
2023-05-14T23:04:43.599Z,98604.88
2023-05-14T23:07:47.101Z,98602.09
2023-05-14T23:10:51.903Z,98601.31
2023-05-14T23:13:55.813Z,98590.13
2023-05-14T23:16:59.237Z,98589.31
2023-05-14T23:20:02.836Z,98593.59
2023-05-14T23:23:06.824Z,98588.22
2023-05-14T23:26:11.685Z,98587.16
2023-05-14T23:29:15.061Z,98582.81
2023-05-14T23:32:18.402Z,98578.13
2023-05-14T23:35:21.827Z,98567.94
2023-05-14T23:38:25.745Z,98555.53
2023-05-14T23:41:30.725Z,98546.41
2023-05-14T23:44:34.237Z,98560.84
2023-05-14T23:47:37.708Z,98553.84
2023-05-14T23:50:41.197Z,98533.47
2023-05-14T23:53:44.561Z,98531.06
2023-05-14T23:56:49.638Z,98518.22
2023-05-14T23:59:53.026Z,98502.03
